createdAt,value
2022-12-12T00:01:37.471Z,40.67
2022-12-12T00:04:06.036Z,30.83
2022-12-12T00:06:33.975Z,35.33
2022-12-12T00:09:01.909Z,35.22
2022-12-12T00:11:30.282Z,38.95
2022-12-12T00:13:58.450Z,49.55
2022-12-12T00:16:29.268Z,46.08
2022-12-12T00:19:00.391Z,34.13
2022-12-12T00:21:30.544Z,37.20
2022-12-12T00:23:59.329Z,32.50
2022-12-12T00:26:31.419Z,30.80
2022-12-12T00:29:01.264Z,27.83
2022-12-12T00:31:29.535Z,33.85
2022-12-12T00:33:58.327Z,37.42
2022-12-12T00:36:29.879Z,35.47
2022-12-12T00:38:59.300Z,26.10
2022-12-12T00:41:28.334Z,27.05
2022-12-12T00:43:56.710Z,29.63
2022-12-12T00:46:26.266Z,27.30
2022-12-12T00:48:57.312Z,23.48
2022-12-12T00:51:27.948Z,24.13
2022-12-12T00:53:59.425Z,35.72
2022-12-12T00:56:29.199Z,24.10
2022-12-12T00:58:57.383Z,31.92
2022-12-12T01:01:29.516Z,26.65
2022-12-12T01:03:59.475Z,31.35
2022-12-12T01:06:28.309Z,28.83
2022-12-12T01:08:56.760Z,32.50
2022-12-12T01:11:25.661Z,36.78
2022-12-12T01:13:57.589Z,29.80
2022-12-12T01:16:26.590Z,27.48
2022-12-12T01:18:54.422Z,27.42
2022-12-12T01:21:22.434Z,27.50
2022-12-12T01:23:50.776Z,25.08
2022-12-12T01:26:22.383Z,29.98
2022-12-12T01:28:51.622Z,30.10
2022-12-12T01:31:20.235Z,26.10
2022-12-12T01:33:48.512Z,28.42
2022-12-12T01:36:19.359Z,34.50
2022-12-12T01:38:50.231Z,31.52
2022-12-12T01:41:19.501Z,30.75
2022-12-12T01:43:47.899Z,29.52
2022-12-12T01:46:43.579Z,28.00
2022-12-12T01:49:26.295Z,31.83
2022-12-12T01:52:00.853Z,32.72
2022-12-12T01:54:36.599Z,37.58
2022-12-12T01:57:13.773Z,38.53
2022-12-12T01:59:42.507Z,33.13
2022-12-12T02:02:10.620Z,31.33
2022-12-12T02:04:38.925Z,25.67
2022-12-12T02:07:08.250Z,38.80
2022-12-12T02:09:38.246Z,30.55
2022-12-12T02:12:06.746Z,30.55
2022-12-12T02:14:40.696Z,27.77
2022-12-12T02:17:29.922Z,33.85
2022-12-12T02:20:40.764Z,32.90
2022-12-12T02:23:19.333Z,26.65
2022-12-12T02:25:52.935Z,37.13
2022-12-12T02:28:49.781Z,33.22
2022-12-12T02:31:56.109Z,35.47
2022-12-12T02:34:47.331Z,38.40
2022-12-12T02:37:50.212Z,42.78
2022-12-12T02:40:46.437Z,41.10
2022-12-12T02:43:40.071Z,39.25
2022-12-12T02:46:32.349Z,33.92
2022-12-12T02:49:08.771Z,35.45
2022-12-12T02:51:38.726Z,26.20
2022-12-12T02:57:00.687Z,27.52
2022-12-12T02:59:37.013Z,30.00
2022-12-12T03:02:43.015Z,37.78
2022-12-12T03:05:47.793Z,26.58
2022-12-12T03:08:49.182Z,33.97
2022-12-12T03:11:52.808Z,23.17
2022-12-12T03:14:57.219Z,35.05
2022-12-12T03:17:50.085Z,28.10
2022-12-12T03:20:40.484Z,28.60
2022-12-12T03:23:18.470Z,33.00
2022-12-12T03:26:06.093Z,35.28
2022-12-12T03:29:20.092Z,38.83
2022-12-12T03:31:56.520Z,32.08
2022-12-12T03:34:58.947Z,37.67
2022-12-12T03:37:35.940Z,30.80
2022-12-12T03:40:15.598Z,38.53
2022-12-12T03:43:10.997Z,37.20
2022-12-12T03:46:14.106Z,33.45
2022-12-12T03:48:57.176Z,33.97
2022-12-12T03:51:31.718Z,45.08
2022-12-12T03:54:07.319Z,36.88
2022-12-12T03:57:18.018Z,33.05
2022-12-12T04:00:02.235Z,35.20
2022-12-12T04:02:52.201Z,34.45
2022-12-12T04:06:10.676Z,34.90
2022-12-12T04:08:39.468Z,28.88
2022-12-12T04:11:39.213Z,37.50
2022-12-12T04:15:03.613Z,36.28
2022-12-12T04:18:18.193Z,34.42
2022-12-12T04:21:44.017Z,42.85
2022-12-12T04:24:37.902Z,32.28
2022-12-12T04:27:22.695Z,35.25
2022-12-12T04:30:08.873Z,34.80
2022-12-12T04:32:50.368Z,32.55
2022-12-12T04:35:46.335Z,41.05
2022-12-12T04:38:21.976Z,30.52
2022-12-12T04:40:58.282Z,32.10
2022-12-12T04:43:34.715Z,39.75
2022-12-12T04:46:18.954Z,33.90
2022-12-12T04:48:56.661Z,26.17
2022-12-12T04:51:31.998Z,32.80
2022-12-12T04:54:30.961Z,34.78
2022-12-12T04:57:05.252Z,35.40
2022-12-12T04:59:33.525Z,33.95
2022-12-12T05:02:26.636Z,30.70
2022-12-12T05:04:59.147Z,34.20
2022-12-12T05:07:44.203Z,33.60
2022-12-12T05:10:16.641Z,40.00
2022-12-12T05:12:51.154Z,38.03
2022-12-12T05:15:20.767Z,32.58
2022-12-12T05:18:01.536Z,37.92
2022-12-12T05:20:29.870Z,36.50
2022-12-12T05:22:57.910Z,34.58
2022-12-12T05:25:26.041Z,39.60
2022-12-12T05:27:53.985Z,39.45
2022-12-12T05:30:22.475Z,30.73
2022-12-12T05:32:51.449Z,34.30
2022-12-12T05:35:19.434Z,36.85
2022-12-12T05:37:51.725Z,41.35
2022-12-12T05:40:21.719Z,36.42
2022-12-12T05:42:49.700Z,41.75
2022-12-12T05:45:17.603Z,43.17
2022-12-12T05:47:45.532Z,40.67
2022-12-12T05:50:14.222Z,36.80
2022-12-12T05:52:42.043Z,38.63
2022-12-12T05:55:10.327Z,36.72
2022-12-12T05:57:38.682Z,34.08
2022-12-12T06:00:09.012Z,39.53
2022-12-12T06:02:37.162Z,38.22
2022-12-12T06:05:05.780Z,30.25
2022-12-12T06:07:33.636Z,35.60
2022-12-12T06:10:01.627Z,33.30
2022-12-12T06:12:29.684Z,32.60
2022-12-12T06:14:57.826Z,35.67
2022-12-12T06:17:29.716Z,26.02
2022-12-12T06:20:01.783Z,37.58
2022-12-12T06:22:29.871Z,38.00
2022-12-12T06:24:58.128Z,30.52
2022-12-12T06:27:26.304Z,34.97
2022-12-12T06:29:54.260Z,32.53
2022-12-12T06:32:22.165Z,28.45
2022-12-12T06:34:50.633Z,34.47
2022-12-12T06:37:18.814Z,37.80
2022-12-12T06:39:47.171Z,38.20
2022-12-12T06:42:15.536Z,36.72
2022-12-12T06:44:43.655Z,41.80
2022-12-12T06:47:11.639Z,33.75
2022-12-12T06:49:39.600Z,29.08
2022-12-12T06:52:07.883Z,31.23
2022-12-12T06:54:36.694Z,36.75
2022-12-12T06:57:04.805Z,35.58
2022-12-12T06:59:34.581Z,38.30
2022-12-12T07:02:02.827Z,38.50
2022-12-12T07:04:30.915Z,35.22
2022-12-12T07:06:59.136Z,38.10
2022-12-12T07:09:28.434Z,33.28
2022-12-12T07:11:56.922Z,29.25
2022-12-12T07:14:25.095Z,42.42
2022-12-12T07:16:53.029Z,38.55
2022-12-12T07:19:22.753Z,36.08
2022-12-12T07:21:51.077Z,35.30
2022-12-12T07:24:19.150Z,33.28
2022-12-12T07:26:47.508Z,29.08
2022-12-12T07:29:16.106Z,27.40
2022-12-12T07:31:43.992Z,32.67
2022-12-12T07:34:11.983Z,29.80
2022-12-12T07:36:40.011Z,30.98
2022-12-12T07:39:08.097Z,33.10
2022-12-12T07:41:36.104Z,30.73
2022-12-12T07:44:05.985Z,32.35
2022-12-12T07:46:33.876Z,28.20
2022-12-12T07:49:01.958Z,40.08
2022-12-12T07:51:31.606Z,30.58
2022-12-12T07:53:59.445Z,42.97
2022-12-12T07:56:27.347Z,35.42
2022-12-12T07:58:57.506Z,31.05
2022-12-12T08:01:28.072Z,29.13
2022-12-12T08:03:57.268Z,33.95
2022-12-12T08:06:25.568Z,34.10
2022-12-12T08:08:54.269Z,36.35
2022-12-12T08:11:25.794Z,31.67
2022-12-12T08:13:54.150Z,30.40
2022-12-12T08:16:28.231Z,34.47
2022-12-12T08:18:59.313Z,35.28
2022-12-12T08:21:28.703Z,23.75
2022-12-12T08:24:02.374Z,31.83
2022-12-12T08:26:31.341Z,32.42
2022-12-12T08:28:59.252Z,34.80
2022-12-12T08:31:28.043Z,28.05
2022-12-12T08:33:57.246Z,25.77
2022-12-12T08:36:31.706Z,28.10
2022-12-12T08:39:05.066Z,28.02
2022-12-12T08:41:38.231Z,29.83
2022-12-12T08:44:08.008Z,30.00
2022-12-12T08:46:35.952Z,18.45
2022-12-12T08:49:04.231Z,27.33
2022-12-12T08:51:33.168Z,30.50
2022-12-12T08:54:01.092Z,23.17
2022-12-12T08:56:29.185Z,25.88
2022-12-12T08:58:58.518Z,26.85
2022-12-12T09:01:28.083Z,25.17
2022-12-12T09:03:57.652Z,26.35
2022-12-12T09:06:27.385Z,23.85
2022-12-12T09:08:59.708Z,23.65
2022-12-12T09:11:27.836Z,25.73
2022-12-12T09:13:55.874Z,21.58
2022-12-12T09:16:26.481Z,25.55
2022-12-12T09:18:54.674Z,21.37
2022-12-12T09:21:22.987Z,24.75
2022-12-12T09:23:51.093Z,24.50
2022-12-12T09:26:19.849Z,23.25
2022-12-12T09:28:48.950Z,24.67
2022-12-12T09:31:16.873Z,26.58
2022-12-12T09:33:45.706Z,19.92
2022-12-12T09:36:14.070Z,29.50
2022-12-12T09:38:42.903Z,26.17
2022-12-12T09:41:19.611Z,23.52
2022-12-12T09:44:12.827Z,29.83
2022-12-12T09:46:55.859Z,28.52
2022-12-12T09:49:54.271Z,26.20
2022-12-12T09:52:37.880Z,24.48
2022-12-12T09:55:36.174Z,22.10
2022-12-12T09:58:49.207Z,26.25
2022-12-12T10:01:53.473Z,32.63
2022-12-12T10:04:52.014Z,23.60
2022-12-12T10:07:36.725Z,23.15
2022-12-12T10:10:33.856Z,23.60
2022-12-12T10:13:05.039Z,29.33
2022-12-12T10:15:45.926Z,28.08
2022-12-12T10:18:26.214Z,28.63
2022-12-12T10:20:59.973Z,33.55
2022-12-12T10:23:53.772Z,28.45
2022-12-12T10:26:31.675Z,26.55
2022-12-12T10:29:21.084Z,29.85
2022-12-12T10:32:16.971Z,27.20
2022-12-12T10:34:50.841Z,32.08
2022-12-12T10:37:41.897Z,23.23
2022-12-12T10:40:29.847Z,25.63
2022-12-12T10:43:09.468Z,30.33
2022-12-12T10:46:13.302Z,29.77
2022-12-12T10:48:41.923Z,31.15
2022-12-12T10:51:15.786Z,26.63
2022-12-12T10:53:45.160Z,31.95
2022-12-12T10:56:25.111Z,31.10
2022-12-12T10:58:59.707Z,23.73
2022-12-12T11:02:07.839Z,28.48
2022-12-12T11:04:22.228Z,28.65
2022-12-12T11:06:55.076Z,24.42
2022-12-12T11:09:27.699Z,33.05
2022-12-12T11:12:01.579Z,26.50
2022-12-12T11:14:40.032Z,27.63
2022-12-12T11:17:31.015Z,24.08
2022-12-12T11:20:03.839Z,30.63
2022-12-12T11:22:34.375Z,26.88
2022-12-12T11:25:02.419Z,29.92
2022-12-12T11:27:39.768Z,25.48
2022-12-12T11:30:32.441Z,33.83
2022-12-12T11:33:01.978Z,32.30
2022-12-12T11:35:35.278Z,28.60
2022-12-12T11:38:50.861Z,25.80
2022-12-12T11:41:19.232Z,22.33
2022-12-12T11:43:50.614Z,27.13
2022-12-12T11:46:24.749Z,23.20
2022-12-12T11:48:52.589Z,31.02
2022-12-12T11:51:50.051Z,31.08
2022-12-12T11:54:34.878Z,31.65
2022-12-12T11:57:39.459Z,28.55
2022-12-12T12:00:22.431Z,25.27
2022-12-12T12:03:10.094Z,32.58
2022-12-12T12:06:08.965Z,30.77
2022-12-12T12:09:14.559Z,29.00
2022-12-12T12:12:02.857Z,28.40
2022-12-12T12:15:28.231Z,28.88
2022-12-12T12:18:34.604Z,28.60
2022-12-12T12:21:39.662Z,31.98
2022-12-12T12:24:14.046Z,30.17
2022-12-12T12:27:26.155Z,27.70
2022-12-12T12:30:11.889Z,23.83
2022-12-12T12:33:13.969Z,27.77
2022-12-12T12:36:27.713Z,28.15
2022-12-12T12:42:29.653Z,24.38
2022-12-12T12:45:17.629Z,26.40
2022-12-12T12:48:25.007Z,25.63
2022-12-12T12:51:23.620Z,31.20
2022-12-12T12:54:30.508Z,27.73
2022-12-12T12:57:12.874Z,27.70
2022-12-12T12:59:55.667Z,35.22
2022-12-12T13:02:36.197Z,29.60
2022-12-12T13:05:39.698Z,30.77
2022-12-12T13:08:24.727Z,31.10
2022-12-12T13:11:02.912Z,28.17
2022-12-12T13:13:35.705Z,30.80
2022-12-12T13:16:18.091Z,26.02
2022-12-12T13:19:09.186Z,32.28
2022-12-12T13:22:04.991Z,34.33
2022-12-12T13:24:59.396Z,27.75
2022-12-12T13:27:45.820Z,32.92
2022-12-12T13:30:42.698Z,36.30
2022-12-12T13:33:41.472Z,28.13
2022-12-12T13:36:32.506Z,36.17
2022-12-12T13:39:05.068Z,34.43
2022-12-12T13:42:02.217Z,33.70
2022-12-12T13:44:36.009Z,34.35
2022-12-12T13:47:24.638Z,33.30
2022-12-12T13:50:11.030Z,33.40
2022-12-12T13:52:43.714Z,38.55
2022-12-12T13:55:11.580Z,33.53
2022-12-12T13:58:19.281Z,40.75
2022-12-12T14:00:47.702Z,36.53
2022-12-12T14:03:30.043Z,35.85
2022-12-12T14:06:12.017Z,38.40
2022-12-12T14:08:51.817Z,41.38
2022-12-12T14:11:36.612Z,35.60
2022-12-12T14:14:18.331Z,36.05
2022-12-12T14:16:54.735Z,36.47
2022-12-12T14:19:35.136Z,34.22
2022-12-12T14:22:04.638Z,37.30
2022-12-12T14:24:35.439Z,39.58
2022-12-12T14:27:06.727Z,42.03
2022-12-12T14:29:45.684Z,43.97
2022-12-12T14:32:13.874Z,46.20
2022-12-12T14:34:57.049Z,40.72
2022-12-12T14:38:10.452Z,41.20
2022-12-12T14:40:45.654Z,40.95
2022-12-12T14:43:23.486Z,34.58
2022-12-12T14:45:51.492Z,37.72
2022-12-12T14:48:25.233Z,44.97
2022-12-12T14:51:13.468Z,39.63
2022-12-12T14:53:54.365Z,41.78
2022-12-12T14:56:39.159Z,32.70
2022-12-12T14:59:20.688Z,39.63
2022-12-12T15:01:53.980Z,41.30
2022-12-12T15:04:26.568Z,35.92
2022-12-12T15:06:58.235Z,39.17
2022-12-12T15:09:31.825Z,49.08
2022-12-12T15:12:20.143Z,42.30
2022-12-12T15:14:49.350Z,43.85
2022-12-12T15:17:37.909Z,41.55
2022-12-12T15:20:15.869Z,34.08
2022-12-12T15:22:58.137Z,42.33
2022-12-12T15:25:43.399Z,45.33
2022-12-12T15:28:20.342Z,41.90
2022-12-12T15:30:52.763Z,47.10
2022-12-12T15:33:24.548Z,45.85
2022-12-12T15:38:31.849Z,41.03
2022-12-12T15:41:05.416Z,37.80
2022-12-12T15:43:37.466Z,37.10
2022-12-12T15:46:16.075Z,43.95
2022-12-12T15:48:45.972Z,41.67
2022-12-12T15:51:21.101Z,39.90
2022-12-12T15:53:58.485Z,42.80
2022-12-12T15:56:29.497Z,40.55
2022-12-12T15:59:09.258Z,46.42
2022-12-12T16:01:38.409Z,42.20
2022-12-12T16:04:09.873Z,44.58
2022-12-12T16:06:42.186Z,47.78
2022-12-12T16:09:18.942Z,40.33
2022-12-12T16:11:51.879Z,40.45
2022-12-12T16:14:26.155Z,43.72
2022-12-12T16:17:24.379Z,46.42
2022-12-12T16:20:13.861Z,47.10
2022-12-12T16:22:44.883Z,49.55
2022-12-12T16:25:19.374Z,47.17
2022-12-12T16:28:08.831Z,49.97
2022-12-12T16:30:39.604Z,45.63
2022-12-12T16:33:30.072Z,38.93
2022-12-12T16:36:01.638Z,39.08
2022-12-12T16:38:31.221Z,42.53
2022-12-12T16:41:04.054Z,42.33
2022-12-12T16:43:32.863Z,35.40
2022-12-12T16:46:01.298Z,32.10
2022-12-12T16:48:40.534Z,25.20
2022-12-12T16:51:15.555Z,30.80
2022-12-12T16:53:43.785Z,34.00
2022-12-12T16:56:12.796Z,40.22
2022-12-12T16:58:40.873Z,36.33
2022-12-12T17:01:09.038Z,36.45
2022-12-12T17:03:37.742Z,33.33
2022-12-12T17:06:06.223Z,34.88
2022-12-12T17:08:35.203Z,39.88
2022-12-12T17:11:09.595Z,35.80
2022-12-12T17:13:51.344Z,32.72
2022-12-12T17:16:25.857Z,39.53
2022-12-12T17:18:56.168Z,37.33
2022-12-12T17:21:26.443Z,30.58
2022-12-12T17:23:55.869Z,32.83
2022-12-12T17:26:25.124Z,34.50
2022-12-12T17:28:54.737Z,40.97
2022-12-12T17:31:23.671Z,43.63
2022-12-12T17:33:52.070Z,50.05
2022-12-12T17:36:21.989Z,46.65
2022-12-12T17:38:50.874Z,41.35
2022-12-12T17:41:23.903Z,37.90
2022-12-12T17:43:56.929Z,42.60
2022-12-12T17:46:28.865Z,40.55
2022-12-12T17:48:59.079Z,36.33
2022-12-12T17:51:27.536Z,39.38
2022-12-12T17:53:56.123Z,40.90
2022-12-12T17:56:25.877Z,37.85
2022-12-12T17:58:57.296Z,35.70
2022-12-12T18:01:31.831Z,33.42
2022-12-12T18:04:01.564Z,34.80
2022-12-12T18:06:35.104Z,38.95
2022-12-12T18:09:04.731Z,37.78
2022-12-12T18:11:35.855Z,40.92
2022-12-12T18:14:07.533Z,39.92
2022-12-12T18:16:37.155Z,33.10
2022-12-12T18:19:05.366Z,39.65
2022-12-12T18:24:25.863Z,37.53
2022-12-12T18:26:57.100Z,39.33
2022-12-12T18:29:27.103Z,32.22
2022-12-12T18:31:59.017Z,30.58
2022-12-12T18:34:27.253Z,30.92
2022-12-12T18:36:55.775Z,33.45
2022-12-12T18:39:26.645Z,37.70
2022-12-12T18:41:54.994Z,27.33
2022-12-12T18:44:24.217Z,27.63
2022-12-12T18:46:52.328Z,27.67
2022-12-12T18:49:20.618Z,27.65
2022-12-12T18:51:49.356Z,21.77
2022-12-12T18:54:17.616Z,22.80
2022-12-12T18:56:47.375Z,25.80
2022-12-12T18:59:16.776Z,27.42
2022-12-12T19:01:45.404Z,27.25
2022-12-12T19:04:20.926Z,22.65
2022-12-12T19:06:53.128Z,31.67
2022-12-12T19:09:22.339Z,31.90
2022-12-12T19:11:54.298Z,22.42
2022-12-12T19:14:35.670Z,21.15
2022-12-12T19:17:08.826Z,27.80
2022-12-12T19:19:37.161Z,27.92
2022-12-12T19:22:24.713Z,32.15
2022-12-12T19:24:53.572Z,29.85
2022-12-12T19:27:21.785Z,25.80
2022-12-12T19:29:49.777Z,28.98
2022-12-12T19:32:17.835Z,26.05
2022-12-12T19:34:45.835Z,23.98
2022-12-12T19:37:13.713Z,27.50
2022-12-12T19:39:43.309Z,25.98
2022-12-12T19:42:11.274Z,28.77
2022-12-12T19:44:43.551Z,24.70
2022-12-12T19:47:13.552Z,26.25
2022-12-12T19:49:41.470Z,26.92
2022-12-12T19:52:14.008Z,26.52
2022-12-12T19:54:43.231Z,26.13
2022-12-12T19:57:11.227Z,31.02
2022-12-12T19:59:39.281Z,29.25
2022-12-12T20:02:08.000Z,29.58
2022-12-12T20:04:36.058Z,29.70
2022-12-12T20:07:04.014Z,27.85
2022-12-12T20:09:35.651Z,27.95
2022-12-12T20:12:04.635Z,28.42
2022-12-12T20:14:34.997Z,28.73
2022-12-12T20:17:03.762Z,28.35
2022-12-12T20:19:32.252Z,33.15
2022-12-12T20:22:02.236Z,32.80
2022-12-12T20:24:33.567Z,28.27
2022-12-12T20:27:05.769Z,27.42
2022-12-12T20:29:33.972Z,28.73
2022-12-12T20:32:03.525Z,28.52
2022-12-12T20:34:31.448Z,26.38
2022-12-12T20:36:59.749Z,26.90
2022-12-12T20:39:27.871Z,27.80
2022-12-12T20:41:57.637Z,30.42
2022-12-12T20:44:26.266Z,28.25
2022-12-12T20:46:58.828Z,35.17
2022-12-12T20:49:29.041Z,25.67
2022-12-12T20:51:58.810Z,26.35
2022-12-12T20:54:29.725Z,31.50
2022-12-12T20:56:59.207Z,32.83
2022-12-12T20:59:28.020Z,30.42
2022-12-12T21:01:56.176Z,30.40
2022-12-12T21:04:24.490Z,30.00
2022-12-12T21:06:52.498Z,27.60
2022-12-12T21:09:25.469Z,29.83
2022-12-12T21:11:57.118Z,30.98
2022-12-12T21:14:28.281Z,30.83
2022-12-12T21:16:57.002Z,23.27
2022-12-12T21:19:25.017Z,33.00
2022-12-12T21:21:53.256Z,28.52
2022-12-12T21:24:21.948Z,27.08
2022-12-12T21:26:50.715Z,33.35
2022-12-12T21:29:18.727Z,33.63
2022-12-12T21:31:51.569Z,26.92
2022-12-12T21:34:22.380Z,22.75
2022-12-12T21:36:52.859Z,29.48
2022-12-12T21:39:23.407Z,32.03
2022-12-12T21:41:51.669Z,26.30
2022-12-12T21:44:21.227Z,26.17
2022-12-12T21:46:49.344Z,26.33
2022-12-12T21:49:20.385Z,25.17
2022-12-12T21:51:48.735Z,27.92
2022-12-12T21:54:17.031Z,33.55
2022-12-12T21:56:45.976Z,26.55
2022-12-12T21:59:15.385Z,28.13
2022-12-12T22:01:44.467Z,25.67
2022-12-12T22:04:13.722Z,29.35
2022-12-12T22:06:43.928Z,26.73
2022-12-12T22:09:13.017Z,31.35
2022-12-12T22:11:49.190Z,27.58
2022-12-12T22:14:21.967Z,29.33
2022-12-12T22:16:50.086Z,26.55
2022-12-12T22:19:18.677Z,29.80
2022-12-12T22:21:50.390Z,26.88
2022-12-12T22:26:49.798Z,25.00
2022-12-12T22:29:20.692Z,24.25
2022-12-12T22:31:50.358Z,24.27
2022-12-12T22:34:24.584Z,26.27
2022-12-12T22:36:55.599Z,19.75
2022-12-12T22:39:28.072Z,26.27
2022-12-12T22:41:57.003Z,20.13
2022-12-12T22:44:26.310Z,23.58
2022-12-12T22:46:55.841Z,29.77
2022-12-12T22:49:26.909Z,22.05
2022-12-12T22:51:57.897Z,21.02
2022-12-12T22:54:27.065Z,19.65
2022-12-12T22:56:56.904Z,25.13
2022-12-12T22:59:25.519Z,22.25
2022-12-12T23:01:53.662Z,18.65
2022-12-12T23:04:22.171Z,22.85
2022-12-12T23:06:50.458Z,24.23
2022-12-12T23:09:23.173Z,21.67
2022-12-12T23:11:53.470Z,18.10
2022-12-12T23:14:23.854Z,18.42
2022-12-12T23:16:52.676Z,22.33
2022-12-12T23:19:25.988Z,24.65
2022-12-12T23:21:54.976Z,21.50
2022-12-12T23:24:24.585Z,20.17
2022-12-12T23:26:52.499Z,20.52
2022-12-12T23:29:21.248Z,20.75
2022-12-12T23:31:49.759Z,18.63
2022-12-12T23:34:24.823Z,28.77
2022-12-12T23:36:54.765Z,23.25
2022-12-12T23:39:24.642Z,22.23
2022-12-12T23:41:53.543Z,19.20
2022-12-12T23:44:23.650Z,21.33
2022-12-12T23:46:52.022Z,19.42
2022-12-12T23:49:26.048Z,20.63
2022-12-12T23:51:59.401Z,22.95
2022-12-12T23:54:35.453Z,21.17
2022-12-12T23:57:03.885Z,21.58
2022-12-12T23:59:32.067Z,19.73
